Terminal Aerodrome Forecast
Issued by NWS

Home | Current Version | Previous Version | Graphics & Text | Print | Product List | Glossary On
Versions: 1 2 3 4 5 6 7 8 9 10 11 12 13 14 15 16 17 18 19 20 21 22 23 24 25 26 27 28 29 30 31 32 33 34 35 36 37 38 39 40 41 42 43 44
000
FTUS43 KGRB 261500 AAB
TAFRHI
TAF AMD
KRHI 261521Z 2615/2712 27008KT P6SM BKN015
      TEMPO 2616/2618 SCT015 BKN050
     FM261800 29008G15KT P6SM SCT050 SCT120
     FM270200 23005KT P6SM SCT050 BKN100 PROB30 2704/2710 5SM -SHRA
      BR BKN050
     FM271000 VRB03KT 5SM -RA BKN025 OVC050=

USA.gov is the U.S. government's official web portal to all federal, state and local government web resources and services.